Time;durP1;ratioP1;P1;durP2;ratioP2;P2;SDS_P1;SDS_P2;PMS_P1;PMS_P2;Temp;Humidity;BMP_temperature;BMP_pressure;BME280_temperature;BME280_humidity;BME280_pressure;Samples;Min_cycle;Max_cycle;Signal;HPM_P1;HPM_P2
2021/09/14 04:22:28;;;;;;;3.30;1.00;;;24.20;70.90;;;;;;5023470;28;81322;-49
2021/09/14 04:24:54;;;;;;;2.45;0.93;;;24.20;71.60;;;;;;5024071;28;81097;-49
2021/09/14 04:27:19;;;;;;;3.03;0.80;;;24.20;71.80;;;;;;5015302;28;81579;-46
2021/09/14 04:29:46;;;;;;;2.20;1.40;;;24.30;71.90;;;;;;5003390;28;81155;-47
2021/09/14 04:32:12;;;;;;;3.20;1.05;;;24.30;71.90;;;;;;5003285;28;82377;-49
2021/09/14 04:34:38;;;;;;;2.13;1.38;;;24.30;71.70;;;;;;5003255;28;81294;-48
2021/09/14 04:37:03;;;;;;;2.47;1.20;;;24.40;71.60;;;;;;5001520;28;81260;-49
2021/09/14 04:39:29;;;;;;;2.83;1.50;;;24.40;71.40;;;;;;5003251;28;82887;-49
2021/09/14 04:41:55;;;;;;;2.45;1.08;;;24.50;71.30;;;;;;5002770;28;82468;-48
2021/09/14 04:44:21;;;;;;;2.10;1.15;;;24.50;71.20;;;;;;5003267;28;81103;-50
2021/09/14 04:46:46;;;;;;;2.20;1.30;;;24.60;71.10;;;;;;5002584;28;81838;-49
2021/09/14 04:49:12;;;;;;;5.15;1.20;;;24.60;70.90;;;;;;5002867;28;83221;-49
2021/09/14 04:51:39;;;;;;;3.67;1.63;;;24.60;70.80;;;;;;5003003;28;81238;-49
2021/09/14 04:54:05;;;;;;;2.58;1.10;;;24.60;70.70;;;;;;5002762;28;81110;-48
2021/09/14 04:56:30;;;;;;;2.38;1.27;;;24.70;70.60;;;;;;5002919;28;81230;-49
2021/09/14 04:58:56;;;;;;;2.20;1.35;;;24.70;70.50;;;;;;5002924;28;82656;-48
2021/09/14 05:01:22;;;;;;;4.50;1.38;;;24.70;70.40;;;;;;4998362;28;81302;-48
2021/09/14 05:03:48;;;;;;;6.03;1.90;;;24.70;70.10;;;;;;4982910;28;81674;-48
2021/09/14 05:06:14;;;;;;;6.85;2.58;;;24.70;67.40;;;;;;4982868;28;81690;-50
2021/09/14 05:08:40;;;;;;;3.50;1.92;;;24.60;67.60;;;;;;4982681;28;82075;-48
2021/09/14 05:11:06;;;;;;;9.43;2.42;;;24.60;67.00;;;;;;4982911;28;81156;-48
2021/09/14 05:13:36;;;;;;;3.55;2.20;;;24.60;67.20;;;;;;4983004;28;81022;-49
2021/09/14 05:16:02;;;;;;;6.00;2.50;;;24.60;64.00;;;;;;4982881;28;82040;-48
2021/09/14 05:18:28;;;;;;;4.78;2.08;;;23.80;63.90;;;;;;4982824;28;81440;-73
2021/09/14 05:20:56;;;;;;;5.25;2.80;;;23.00;66.30;;;;;;4982104;28;81333;-47
2021/09/14 05:23:31;;;;;;;8.63;2.28;;;22.40;67.10;;;;;;4977661;28;81452;-48
2021/09/14 05:25:58;;;;;;;;;;;21.90;71.20;;;;;;5005055;28;81741;-48
2021/09/14 05:28:24;;;;;;;10.55;2.28;;;22.00;72.50;;;;;;4990224;28;82116;-48
2021/09/14 05:30:50;;;;;;;3.15;1.77;;;22.30;72.70;;;;;;5011605;28;82632;-48
2021/09/14 05:33:16;;;;;;;6.15;2.20;;;22.60;72.50;;;;;;4996668;28;81491;-48
2021/09/14 05:35:48;;;;;;;7.70;1.90;;;22.90;72.00;;;;;;4987026;28;81279;-48
2021/09/14 05:38:16;;;;;;;7.03;2.33;;;23.20;71.50;;;;;;4988296;28;83543;-48
2021/09/14 05:40:43;;;;;;;8.50;2.33;;;23.40;71.00;;;;;;4982506;28;84504;-48
2021/09/14 05:43:08;;;;;;;8.20;2.10;;;23.60;69.30;;;;;;4985620;28;81688;-48
2021/09/14 05:45:34;;;;;;;6.43;2.20;;;23.70;69.70;;;;;;4982898;28;81233;-50
2021/09/14 05:48:00;;;;;;;4.60;1.60;;;23.80;69.80;;;;;;4969264;28;82232;-48
2021/09/14 05:50:26;;;;;;;7.13;2.15;;;23.90;69.60;;;;;;4969292;28;81747;-48
2021/09/14 05:52:52;;;;;;;4.30;1.85;;;24.00;69.50;;;;;;4969217;28;81251;-48
2021/09/14 05:55:18;;;;;;;5.05;1.67;;;24.10;69.40;;;;;;4981767;28;81408;-49
2021/09/14 05:57:44;;;;;;;5.20;1.80;;;24.10;69.20;;;;;;4986724;28;81685;-49
2021/09/14 06:00:10;;;;;;;5.05;1.90;;;24.20;69.10;;;;;;4984581;28;80885;-49
2021/09/14 06:02:36;;;;;;;4.88;1.90;;;24.30;69.10;;;;;;4985264;28;81185;-48
2021/09/14 06:05:02;;;;;;;6.03;1.60;;;24.30;69.00;;;;;;4996496;28;81378;-49
2021/09/14 06:07:27;;;;;;;3.38;1.60;;;24.40;68.90;;;;;;5006065;28;83322;-47
2021/09/14 06:09:54;;;;;;;4.70;2.25;;;24.40;68.90;;;;;;5006412;28;81383;-49
2021/09/14 06:12:19;;;;;;;3.88;1.83;;;24.40;68.70;;;;;;4988585;28;81628;-48
2021/09/14 06:14:45;;;;;;;4.22;1.92;;;24.40;68.60;;;;;;4988327;28;82427;-48
2021/09/14 06:17:11;;;;;;;4.05;1.70;;;24.50;68.60;;;;;;4988517;28;81072;-49
2021/09/14 06:19:37;;;;;;;5.10;1.90;;;24.50;68.50;;;;;;4985925;28;82737;-48
2021/09/14 06:22:03;;;;;;;4.10;1.75;;;24.60;68.40;;;;;;4987945;28;81242;-48
2021/09/14 06:24:29;;;;;;;2.92;1.70;;;24.60;68.30;;;;;;4983491;28;81761;-49
2021/09/14 06:26:54;;;;;;;3.78;1.92;;;24.60;68.30;;;;;;4986287;28;82766;-48
2021/09/14 06:29:21;;;;;;;4.47;1.73;;;24.60;68.20;;;;;;4986689;28;80982;-49
2021/09/14 06:31:47;;;;;;;3.95;1.77;;;24.60;68.10;;;;;;4986382;28;81262;-48
2021/09/14 06:34:12;;;;;;;5.95;1.70;;;24.60;68.10;;;;;;4985893;28;81257;-48
2021/09/14 06:36:38;;;;;;;4.15;1.65;;;24.70;68.10;;;;;;4976914;28;81368;-48
2021/09/14 06:39:04;;;;;;;2.70;1.40;;;24.70;68.00;;;;;;4967193;28;81746;-47
2021/09/14 06:41:30;;;;;;;2.92;1.45;;;24.70;68.00;;;;;;4977339;28;81286;-47
2021/09/14 06:43:56;;;;;;;3.13;1.75;;;24.70;68.60;;;;;;5007005;28;81140;-48
2021/09/14 06:46:23;;;;;;;4.35;2.13;;;24.70;67.90;;;;;;4995143;28;83717;-48
2021/09/14 06:48:48;;;;;;;3.38;1.58;;;24.70;67.80;;;;;;4986535;28;85904;-47
2021/09/14 06:51:14;;;;;;;3.55;1.80;;;24.70;67.70;;;;;;4990576;28;81412;-47
2021/09/14 06:53:40;;;;;;;3.70;2.22;;;24.70;67.80;;;;;;4994779;28;81139;-48
2021/09/14 06:56:07;;;;;;;4.55;2.35;;;24.80;67.70;;;;;;4991491;28;81659;-48
2021/09/14 06:58:33;;;;;;;3.03;1.58;;;24.80;67.70;;;;;;4985341;28;83148;-47
2021/09/14 07:00:58;;;;;;;2.90;1.63;;;24.80;67.60;;;;;;4978283;28;81276;-49
2021/09/14 07:03:24;;;;;;;4.07;1.92;;;24.80;67.60;;;;;;4975110;28;81446;-47
2021/09/14 07:05:50;;;;;;;2.97;1.75;;;24.80;67.60;;;;;;4973057;28;82448;-48
2021/09/14 07:08:15;;;;;;;3.10;1.63;;;24.90;67.60;;;;;;4972855;28;81215;-49
2021/09/14 07:10:41;;;;;;;2.42;1.20;;;24.80;67.50;;;;;;4976595;28;82196;-49
2021/09/14 07:13:07;;;;;;;3.30;1.67;;;24.80;67.40;;;;;;4974664;28;81497;-48
2021/09/14 07:15:34;;;;;;;3.75;1.83;;;24.90;67.50;;;;;;4983573;28;81401;-48
2021/09/14 07:18:00;;;;;;;2.53;1.58;;;24.90;67.40;;;;;;4978055;28;83596;-48
2021/09/14 07:20:26;;;;;;;2.70;1.88;;;24.90;67.30;;;;;;4980138;28;82226;-48
2021/09/14 07:22:51;;;;;;;4.53;1.73;;;24.90;68.00;;;;;;4975726;28;82188;-48
2021/09/14 07:25:17;;;;;;;3.25;1.60;;;24.90;67.30;;;;;;4977890;28;82010;-50
2021/09/14 07:27:43;;;;;;;2.63;1.63;;;24.90;67.30;;;;;;4966535;28;81841;-48
2021/09/14 07:30:09;;;;;;;2.72;1.55;;;25.00;67.30;;;;;;4974029;28;81578;-48
2021/09/14 07:32:35;;;;;;;2.75;1.55;;;25.00;67.20;;;;;;4972764;28;81502;-50
2021/09/14 07:35:02;;;;;;;2.88;1.65;;;25.00;67.20;;;;;;4976894;28;81376;-48
2021/09/14 07:37:28;;;;;;;2.47;1.40;;;25.00;67.20;;;;;;4973577;28;81357;-48
2021/09/14 07:39:53;;;;;;;2.05;1.13;;;25.00;67.10;;;;;;4981214;28;82254;-48
2021/09/14 07:42:19;;;;;;;3.33;1.52;;;25.00;67.10;;;;;;4970688;28;81587;-48
2021/09/14 07:44:45;;;;;;;2.83;1.45;;;25.10;67.20;;;;;;4971593;28;83020;-48
2021/09/14 07:47:11;;;;;;;3.42;1.63;;;25.00;67.00;;;;;;4972707;28;84254;-50
2021/09/14 07:49:37;;;;;;;2.08;1.15;;;25.00;67.00;;;;;;4977798;28;81546;-48
2021/09/14 07:52:02;;;;;;;2.13;1.27;;;25.10;67.10;;;;;;4975192;28;82409;-48
2021/09/14 07:54:28;;;;;;;2.40;1.50;;;25.10;67.00;;;;;;4984420;28;82687;-48
2021/09/14 07:56:54;;;;;;;2.65;1.40;;;25.10;67.10;;;;;;4981194;28;82382;-48
2021/09/14 07:59:20;;;;;;;3.30;1.85;;;25.10;67.60;;;;;;4973263;28;81591;-48
2021/09/14 08:01:46;;;;;;;4.32;1.65;;;25.10;66.90;;;;;;4970393;28;81469;-48
2021/09/14 08:04:11;;;;;;;3.63;1.50;;;25.10;66.90;;;;;;4975997;28;81916;-50
2021/09/14 08:06:37;;;;;;;2.92;2.10;;;25.10;66.90;;;;;;4967888;28;81943;-48
2021/09/14 08:09:03;;;;;;;7.47;1.98;;;25.10;66.80;;;;;;4970323;28;81630;-48
2021/09/14 08:11:28;;;;;;;3.15;1.50;;;25.10;66.90;;;;;;4966435;28;81652;-48
2021/09/14 08:13:54;;;;;;;3.75;2.13;;;25.10;66.80;;;;;;4969614;28;81696;-48
2021/09/14 08:16:20;;;;;;;4.40;2.05;;;25.10;66.80;;;;;;4969983;28;83186;-47
2021/09/14 08:18:45;;;;;;;6.00;2.30;;;25.10;66.80;;;;;;4974252;28;81391;-48
2021/09/14 08:21:11;;;;;;;4.40;2.33;;;25.10;66.80;;;;;;4970845;28;81465;-49
2021/09/14 08:23:37;;;;;;;5.97;2.40;;;25.10;66.80;;;;;;4974444;28;81516;-49
2021/09/14 08:26:03;;;;;;;5.97;2.35;;;25.10;66.80;;;;;;4970525;28;83078;-48
2021/09/14 08:28:29;;;;;;;5.97;2.75;;;25.10;66.80;;;;;;4973828;28;83411;-48
2021/09/14 08:30:56;;;;;;;6.60;2.95;;;25.10;66.80;;;;;;4969026;28;82130;-48
2021/09/14 08:33:21;;;;;;;6.65;3.42;;;25.10;66.80;;;;;;4974495;28;82077;-48
2021/09/14 08:35:47;;;;;;;7.75;3.63;;;25.10;66.80;;;;;;4971109;28;84507;-48
2021/09/14 08:38:13;;;;;;;7.72;3.72;;;25.10;66.80;;;;;;4973751;28;83001;-49
2021/09/14 08:40:40;;;;;;;7.93;4.10;;;25.10;66.90;;;;;;4968642;28;81912;-49
2021/09/14 08:43:10;;;;;;;9.07;3.88;;;25.10;66.90;;;;;;4965918;28;82480;-48
2021/09/14 08:45:37;;;;;;;9.80;4.65;;;25.10;66.90;;;;;;4973655;28;83076;-49
2021/09/14 08:48:03;;;;;;;9.82;4.65;;;25.10;67.00;;;;;;4975232;28;83638;-48
2021/09/14 08:50:29;;;;;;;11.00;4.03;;;25.10;67.00;;;;;;4974450;28;81926;-48
2021/09/14 08:52:55;;;;;;;10.38;4.70;;;25.10;67.00;;;;;;4971736;28;82778;-48
2021/09/14 08:55:22;;;;;;;11.90;4.57;;;25.10;66.90;;;;;;4970127;28;82275;-48
2021/09/14 08:57:52;;;;;;;11.20;4.63;;;25.10;66.90;;;;;;4964270;28;83075;-48
2021/09/14 09:00:35;;;;;;;10.50;4.88;;;25.10;67.00;;;;;;4970464;28;83647;-49
2021/09/14 09:03:01;;;;;;;11.18;4.38;;;25.10;67.00;;;;;;4964216;28;83518;-48
2021/09/14 09:05:45;;;;;;;11.32;4.75;;;25.20;66.90;;;;;;4969845;28;83206;-48
2021/09/14 09:08:29;;;;;;;10.38;4.45;;;25.20;66.90;;;;;;4965426;28;81908;-48
2021/09/14 09:11:02;;;;;;;11.45;4.82;;;25.20;66.90;;;;;;4971324;28;82319;-49
2021/09/14 09:13:43;;;;;;;10.40;4.70;;;25.30;66.90;;;;;;4971834;28;84289;-48
2021/09/14 09:16:24;;;;;;;10.40;4.72;;;25.20;66.80;;;;;;4979040;28;83286;-51
2021/09/14 09:18:50;;;;;;;11.55;4.68;;;25.30;66.90;;;;;;4981401;28;83628;-48
2021/09/14 09:21:16;;;;;;;10.30;4.88;;;25.30;66.90;;;;;;4980004;28;82034;-48
2021/09/14 09:23:42;;;;;;;9.70;4.53;;;25.30;66.90;;;;;;4978316;28;82541;-48
2021/09/14 09:26:09;;;;;;;10.43;4.63;;;25.30;66.90;;;;;;4983298;28;82887;-48
2021/09/14 09:28:36;;;;;;;10.18;4.18;;;25.30;66.80;;;;;;4973024;28;85309;-48
2021/09/14 09:31:09;;;;;;;10.10;4.63;;;25.30;66.80;;;;;;4973384;28;82543;-48
2021/09/14 09:33:35;;;;;;;10.48;4.28;;;25.30;66.80;;;;;;4977561;28;83652;-48
2021/09/14 09:36:07;;;;;;;12.93;4.47;;;25.30;66.90;;;;;;4968415;28;82151;-48
2021/09/14 09:38:49;;;;;;;11.13;4.32;;;25.30;66.90;;;;;;4972552;28;84772;-48
2021/09/14 09:41:18;;;;;;;8.60;4.40;;;25.30;66.90;;;;;;4980360;28;81974;-48
2021/09/14 09:43:45;;;;;;;9.52;4.13;;;25.30;66.90;;;;;;4980926;28;83108;-48
2021/09/14 09:46:18;;;;;;;9.93;4.05;;;25.30;67.00;;;;;;4981199;28;81923;-48
2021/09/14 09:48:44;;;;;;;8.25;3.50;;;25.30;67.10;;;;;;4979440;28;83226;-48
2021/09/14 09:51:10;;;;;;;8.27;3.65;;;25.30;67.10;;;;;;4975842;28;82966;-48
2021/09/14 09:53:38;;;;;;;7.90;4.13;;;25.30;67.10;;;;;;4974939;28;84300;-48
2021/09/14 09:56:05;;;;;;;9.73;4.90;;;25.30;67.10;;;;;;4969458;28;82820;-49
2021/09/14 09:58:31;;;;;;;8.70;3.60;;;25.30;67.80;;;;;;4966736;28;82910;-48
2021/09/14 10:01:15;;;;;;;8.10;3.90;;;25.30;67.10;;;;;;4972225;28;82495;-50
2021/09/14 10:04:06;;;;;;;7.85;3.88;;;25.30;67.20;;;;;;4976296;28;82482;-49
2021/09/14 10:06:39;;;;;;;8.35;4.07;;;25.30;67.20;;;;;;4965738;28;83800;-49
2021/09/14 10:09:05;;;;;;;6.72;3.70;;;25.30;67.90;;;;;;4972822;28;83147;-48
2021/09/14 10:11:33;;;;;;;8.95;3.67;;;25.30;67.30;;;;;;4972860;28;82317;-47
2021/09/14 10:14:16;;;;;;;8.20;3.33;;;25.30;67.30;;;;;;4970319;28;83706;-48
2021/09/14 10:16:46;;;;;;;7.95;4.00;;;25.30;67.40;;;;;;4974193;28;83205;-48
2021/09/14 10:19:31;;;;;;;7.53;3.47;;;25.30;67.40;;;;;;4969363;28;83731;-50
2021/09/14 10:22:06;;;;;;;6.70;3.25;;;25.30;67.50;;;;;;4972972;28;82856;-48
2021/09/14 10:24:34;;;;;;;7.28;3.65;;;25.30;67.50;;;;;;4973951;28;82054;-48
2021/09/14 10:27:07;;;;;;;7.22;3.60;;;25.30;67.60;;;;;;4970168;28;82689;-48
2021/09/14 10:29:34;;;;;;;7.13;3.63;;;25.30;67.60;;;;;;4975026;28;82152;-48
2021/09/14 10:32:07;;;;;;;6.38;3.83;;;25.30;67.70;;;;;;4967843;28;82635;-48
2021/09/14 10:34:34;;;;;;;7.38;3.75;;;25.30;67.70;;;;;;4968125;28;83287;-48
2021/09/14 10:37:07;;;;;;;6.97;3.03;;;25.30;67.70;;;;;;4974116;28;86267;-49
2021/09/14 10:39:41;;;;;;;7.07;3.35;;;25.30;67.70;;;;;;4969915;28;84207;-50
2021/09/14 10:42:21;;;;;;;7.03;3.33;;;25.30;67.80;;;;;;4967770;28;82962;-48
2021/09/14 10:44:51;;;;;;;6.80;3.33;;;25.30;67.80;;;;;;4973263;28;81895;-48
2021/09/14 10:47:20;;;;;;;5.80;3.25;;;25.30;67.80;;;;;;4974230;28;83794;-48
2021/09/14 10:50:03;;;;;;;6.63;3.78;;;25.30;67.80;;;;;;4974879;28;82752;-48
2021/09/14 10:52:34;;;;;;;6.93;3.22;;;25.30;67.90;;;;;;4965565;28;81931;-48
2021/09/14 10:55:10;;;;;;;6.05;3.13;;;25.40;67.90;;;;;;4974065;28;84010;-48
2021/09/14 10:57:39;;;;;;;5.57;2.67;;;25.30;67.90;;;;;;4976551;28;82326;-48
2021/09/14 11:00:11;;;;;;;5.30;3.13;;;25.40;67.90;;;;;;4974309;28;83652;-48
2021/09/14 11:02:40;;;;;;;6.45;3.00;;;25.30;67.90;;;;;;4976073;28;81840;-48
2021/09/14 11:05:06;;;;;;;;;;;25.40;68.00;;;;;;4975873;28;84577;-48
2021/09/14 11:07:32;;;;;;;5.93;3.00;;;25.40;68.00;;;;;;4977314;28;85088;-49
2021/09/14 11:10:00;;;;;;;6.47;3.00;;;25.40;68.10;;;;;;4971180;28;83127;-48
2021/09/14 11:12:29;;;;;;;5.43;2.80;;;25.40;68.10;;;;;;4969671;28;82805;-48
2021/09/14 11:14:56;;;;;;;4.80;2.88;;;25.40;68.10;;;;;;4974042;28;83699;-48
2021/09/14 11:17:32;;;;;;;6.13;2.58;;;25.40;68.10;;;;;;4976437;28;81890;-50
2021/09/14 11:20:19;;;;;;;5.15;3.17;;;25.40;68.20;;;;;;4965016;28;84195;-50
2021/09/14 11:22:47;;;;;;;5.35;2.85;;;25.40;68.20;;;;;;4973953;28;82389;-48
2021/09/14 11:25:15;;;;;;;6.60;2.78;;;25.40;68.20;;;;;;4971746;28;81970;-51
2021/09/14 11:27:52;;;;;;;5.45;2.42;;;25.40;68.10;;;;;;4981219;28;83896;-48
2021/09/14 11:30:18;;;;;;;5.93;2.80;;;25.50;68.30;;;;;;4983134;28;82188;-48
2021/09/14 11:32:44;;;;;;;5.88;3.42;;;25.40;68.20;;;;;;4984421;28;82465;-48
2021/09/14 11:35:11;;;;;;;5.40;3.10;;;25.40;67.50;;;;;;4986607;28;84244;-48
2021/09/14 11:37:36;;;;;;;4.97;3.00;;;25.40;67.60;;;;;;4971589;28;81794;-47
2021/09/14 11:40:03;;;;;;;7.55;3.08;;;25.40;67.70;;;;;;4980926;28;83307;-48
2021/09/14 11:42:30;;;;;;;5.53;2.92;;;25.40;68.00;;;;;;4977573;28;81653;-49
2021/09/14 11:45:05;;;;;;;6.43;3.25;;;25.40;67.70;;;;;;4982852;28;83200;-48
2021/09/14 11:47:31;;;;;;;4.75;2.65;;;25.30;67.70;;;;;;4978120;28;84590;-47
2021/09/14 11:49:57;;;;;;;5.72;3.15;;;25.40;68.00;;;;;;4966097;28;82771;-47
2021/09/14 11:52:23;;;;;;;5.25;2.55;;;25.30;68.20;;;;;;4976257;28;82073;-47
2021/09/14 11:54:50;;;;;;;3.65;2.08;;;25.30;67.50;;;;;;4982909;28;82663;-47
2021/09/14 11:57:18;;;;;;;5.25;2.83;;;25.30;67.70;;;;;;4975026;28;84504;-47
2021/09/14 11:59:44;;;;;;;4.43;2.47;;;25.30;67.60;;;;;;4971582;28;84547;-47
2021/09/14 12:02:10;;;;;;;4.93;2.22;;;25.30;67.90;;;;;;4977525;28;82055;-47
2021/09/14 12:04:36;;;;;;;5.65;2.67;;;25.30;67.90;;;;;;4972081;28;82702;-48
2021/09/14 12:07:02;;;;;;;4.63;2.58;;;25.30;67.40;;;;;;4976942;28;82007;-52
2021/09/14 12:09:30;;;;;;;3.95;2.45;;;25.30;67.50;;;;;;4978651;28;86579;-48
2021/09/14 12:12:08;;;;;;;3.92;2.10;;;25.30;67.80;;;;;;4976334;28;82303;-48
2021/09/14 12:14:34;;;;;;;11.18;2.53;;;25.30;68.10;;;;;;4969997;28;83355;-47
2021/09/14 12:17:03;;;;;;;4.82;2.50;;;25.40;68.40;;;;;;4979008;28;82253;-47
2021/09/14 12:19:30;;;;;;;3.55;2.42;;;25.40;68.50;;;;;;4970173;28;83086;-46
2021/09/14 12:21:56;;;;;;;3.70;2.28;;;25.40;68.60;;;;;;4980073;28;83889;-47
2021/09/14 12:24:23;;;;;;;4.38;2.30;;;25.40;68.80;;;;;;4983315;28;81793;-47
2021/09/14 12:26:55;;;;;;;7.60;2.63;;;25.50;68.90;;;;;;4975308;28;81764;-46
2021/09/14 12:29:21;;;;;;;4.43;2.22;;;25.50;69.10;;;;;;4961725;28;83280;-47
2021/09/14 12:31:47;;;;;;;5.30;2.47;;;25.50;69.00;;;;;;4978486;28;81750;-48
2021/09/14 12:34:15;;;;;;;6.78;2.63;;;25.50;69.00;;;;;;4976413;28;83084;-47
2021/09/14 12:36:44;;;;;;;3.65;1.92;;;25.60;69.10;;;;;;4978736;28;83417;-47
2021/09/14 12:39:11;;;;;;;4.68;2.72;;;25.60;69.20;;;;;;4981175;28;82267;-47
2021/09/14 12:41:38;;;;;;;4.03;2.63;;;25.60;69.20;;;;;;4979175;28;81965;-47
2021/09/14 12:44:04;;;;;;;4.18;2.47;;;25.60;69.20;;;;;;4979309;28;81699;-47
2021/09/14 12:46:30;;;;;;;3.58;2.17;;;25.70;69.40;;;;;;4977288;28;84039;-47
2021/09/14 12:48:55;;;;;;;4.40;2.70;;;25.70;69.40;;;;;;4983477;28;82124;-47
2021/09/14 12:51:21;;;;;;;5.30;2.72;;;25.70;68.90;;;;;;4987425;28;81880;-51
2021/09/14 12:53:47;;;;;;;31.42;2.85;;;25.70;68.90;;;;;;4986730;28;83176;-49
2021/09/14 12:56:14;;;;;;;21.92;2.25;;;25.70;69.80;;;;;;4986878;28;83731;-49
2021/09/14 12:58:40;;;;;;;8.65;2.60;;;25.70;69.30;;;;;;4986763;28;82943;-49
2021/09/14 13:01:05;;;;;;;12.82;2.40;;;25.70;69.40;;;;;;4976758;28;82127;-51
2021/09/14 13:03:31;;;;;;;10.70;2.33;;;25.70;69.40;;;;;;4976067;28;82551;-52
2021/09/14 13:05:57;;;;;;;7.10;2.50;;;25.70;69.40;;;;;;4975803;28;83276;-50
2021/09/14 13:08:22;;;;;;;5.68;2.75;;;25.70;69.40;;;;;;4975874;28;82948;-48
2021/09/14 13:10:48;;;;;;;6.53;2.63;;;25.70;69.40;;;;;;4972813;28;82886;-49
2021/09/14 13:16:10;;;;;;;3.78;1.83;;;25.70;69.40;;;;;;4974549;28;82045;-47
2021/09/14 13:18:44;;;;;;;8.48;2.10;;;25.70;69.40;;;;;;4970142;28;82685;-50
2021/09/14 13:21:11;;;;;;;5.20;2.63;;;25.70;69.30;;;;;;4975055;28;82299;-47
2021/09/14 13:23:38;;;;;;;4.57;2.30;;;25.70;69.30;;;;;;4976109;28;82882;-47
2021/09/14 13:26:05;;;;;;;4.90;2.10;;;25.70;69.30;;;;;;4972203;28;83064;-48
2021/09/14 13:28:31;;;;;;;5.35;1.92;;;25.70;69.30;;;;;;4975974;28;81795;-48
2021/09/14 13:30:57;;;;;;;3.95;2.03;;;25.70;69.30;;;;;;4972882;28;81949;-47
2021/09/14 13:33:23;;;;;;;4.40;2.42;;;25.70;69.30;;;;;;4974213;28;82253;-48
2021/09/14 13:35:49;;;;;;;3.55;2.10;;;25.70;69.20;;;;;;4975760;28;82949;-47
2021/09/14 13:38:14;;;;;;;2.95;2.03;;;25.70;69.20;;;;;;4973484;28;83071;-47
2021/09/14 13:40:43;;;;;;;3.20;2.15;;;25.70;69.10;;;;;;4978492;28;81986;-48
2021/09/14 13:43:09;;;;;;;3.55;2.10;;;25.70;69.00;;;;;;4975145;28;83743;-47
2021/09/14 13:48:24;;;;;;;3.00;2.03;;;25.70;69.00;;;;;;4977241;28;82173;-46
2021/09/14 13:50:50;;;;;;;4.30;2.35;;;25.70;69.30;;;;;;4975374;28;81970;-49
2021/09/14 13:53:17;;;;;;;2.72;1.80;;;25.70;69.00;;;;;;4978032;28;81455;-47
2021/09/14 13:55:46;;;;;;;3.03;2.15;;;25.70;68.90;;;;;;4974652;28;81879;-47
2021/09/14 13:58:12;;;;;;;3.13;2.08;;;25.70;68.90;;;;;;4979437;28;81995;-47
2021/09/14 14:00:38;;;;;;;2.58;1.60;;;25.70;68.90;;;;;;4974219;28;83405;-50
2021/09/14 14:03:04;;;;;;;3.00;2.10;;;25.70;68.90;;;;;;4978736;28;82411;-50
2021/09/14 14:05:30;;;;;;;2.53;1.83;;;25.70;68.80;;;;;;4976376;28;84078;-50
2021/09/14 14:07:56;;;;;;;4.45;2.45;;;25.70;68.80;;;;;;4972796;28;83516;-51
2021/09/14 14:10:23;;;;;;;3.38;2.38;;;25.70;68.80;;;;;;4966044;28;81920;-49
2021/09/14 14:12:49;;;;;;;3.83;2.03;;;25.80;68.90;;;;;;4972735;28;83514;-53
2021/09/14 14:15:15;;;;;;;2.33;1.60;;;25.70;68.70;;;;;;4966394;28;82405;-50
2021/09/14 14:17:40;;;;;;;3.35;1.90;;;25.80;68.70;;;;;;4976919;28;81656;-49
2021/09/14 14:20:07;;;;;;;3.97;1.70;;;25.80;68.70;;;;;;4974628;28;82025;-50
2021/09/14 14:22:32;;;;;;;4.30;2.50;;;25.70;68.60;;;;;;4967598;28;81884;-50
2021/09/14 14:24:58;;;;;;;2.55;1.60;;;25.70;68.70;;;;;;4975036;28;82889;-50
2021/09/14 14:27:25;;;;;;;2.85;2.08;;;25.70;68.60;;;;;;4976911;28;84282;-51
2021/09/14 14:29:51;;;;;;;3.15;2.40;;;25.80;68.70;;;;;;4975967;28;82767;-50
2021/09/14 14:32:17;;;;;;;2.88;1.88;;;25.70;68.60;;;;;;4978391;28;82415;-50
2021/09/14 14:34:42;;;;;;;2.72;1.65;;;25.80;68.70;;;;;;4977031;28;83088;-53
2021/09/14 14:37:08;;;;;;;3.28;2.13;;;25.70;68.60;;;;;;4975278;28;81921;-50
2021/09/14 14:39:34;;;;;;;4.03;2.15;;;25.70;68.60;;;;;;4974286;28;81997;-51
2021/09/14 14:41:59;;;;;;;4.75;2.47;;;25.70;68.50;;;;;;4975082;28;82460;-50
2021/09/14 14:44:25;;;;;;;3.28;1.80;;;25.80;68.60;;;;;;4973745;28;82528;-49
2021/09/14 14:46:50;;;;;;;2.70;1.80;;;25.70;69.10;;;;;;4979332;28;82283;-50
2021/09/14 14:49:16;;;;;;;3.63;2.33;;;25.70;68.40;;;;;;4980077;28;82817;-50
2021/09/14 14:51:42;;;;;;;3.38;1.75;;;25.80;68.50;;;;;;4972833;28;82085;-49
2021/09/14 14:54:09;;;;;;;3.20;2.13;;;25.80;68.50;;;;;;4977064;28;82518;-52
2021/09/14 14:56:35;;;;;;;3.17;2.13;;;25.80;68.50;;;;;;4965011;28;83170;-50
2021/09/14 14:59:00;;;;;;;2.67;1.70;;;25.80;68.50;;;;;;4977122;28;81942;-51
2021/09/14 15:01:26;;;;;;;2.90;2.10;;;25.80;68.50;;;;;;4976540;28;82400;-50
2021/09/14 15:03:53;;;;;;;2.55;1.85;;;25.80;68.40;;;;;;4978819;28;81913;-51
2021/09/14 15:06:18;;;;;;;2.97;2.08;;;25.80;68.40;;;;;;4974625;28;82117;-48
2021/09/14 15:08:44;;;;;;;2.80;1.75;;;25.80;68.40;;;;;;4976114;28;82237;-47
2021/09/14 15:11:10;;;;;;;2.85;2.10;;;25.80;68.40;;;;;;4967976;28;84493;-48
2021/09/14 15:13:35;;;;;;;2.90;2.00;;;25.80;68.40;;;;;;4974964;28;82909;-48
2021/09/14 15:16:01;;;;;;;3.25;2.30;;;25.80;68.40;;;;;;4967434;28;82445;-47
2021/09/14 15:18:27;;;;;;;3.45;1.90;;;25.80;68.30;;;;;;4971775;28;81849;-48
2021/09/14 15:20:53;;;;;;;4.20;2.28;;;25.80;68.30;;;;;;4984475;28;81929;-47
2021/09/14 15:23:21;;;;;;;3.22;1.98;;;25.80;68.30;;;;;;4977836;28;83122;-48
2021/09/14 15:25:49;;;;;;;3.47;1.83;;;25.80;68.20;;;;;;4981236;28;83362;-48
2021/09/14 15:28:15;;;;;;;3.42;2.17;;;25.80;68.20;;;;;;4982316;28;81623;-48
2021/09/14 15:30:46;;;;;;;4.47;1.80;;;25.80;68.20;;;;;;4996036;28;82182;-48
2021/09/14 15:33:11;;;;;;;2.95;1.73;;;25.80;68.20;;;;;;4980804;28;84004;-47
2021/09/14 15:35:37;;;;;;;5.15;2.03;;;25.80;68.20;;;;;;4978821;28;82275;-48
2021/09/14 15:38:21;;;;;;;4.47;1.95;;;25.80;68.30;;;;;;4972438;28;82818;-48
2021/09/14 15:40:58;;;;;;;4.05;2.30;;;25.80;68.30;;;;;;4984103;28;83875;-50
2021/09/14 15:43:32;;;;;;;4.43;1.88;;;25.90;68.40;;;;;;4980672;28;83120;-53
2021/09/14 15:45:59;;;;;;;4.13;1.83;;;25.90;68.50;;;;;;4983755;28;82905;-47
2021/09/14 15:48:26;;;;;;;3.42;2.13;;;25.90;68.60;;;;;;4986524;28;81641;-47
2021/09/14 15:50:53;;;;;;;6.75;1.92;;;25.90;68.60;;;;;;4986617;28;81826;-60
2021/09/14 15:53:20;;;;;;;10.90;2.15;;;25.90;68.60;;;;;;4983042;28;81760;-60
2021/09/14 15:55:47;;;;;;;4.00;1.80;;;25.90;68.60;;;;;;4987463;28;82266;-61
2021/09/14 15:58:13;;;;;;;7.88;2.38;;;26.00;68.80;;;;;;5002305;28;81337;-61
2021/09/14 16:00:38;;;;;;;2.97;1.95;;;26.00;68.90;;;;;;4982281;28;81839;-60
2021/09/14 16:03:04;;;;;;;5.43;2.00;;;26.00;68.90;;;;;;4965979;28;82612;-49
2021/09/14 16:05:34;;;;;;;4.18;1.73;;;26.00;68.90;;;;;;4966246;28;85159;-47
2021/09/14 16:08:05;;;;;;;3.60;1.88;;;26.00;69.00;;;;;;4974174;28;81688;-50
2021/09/14 16:10:31;;;;;;;3.13;2.00;;;26.00;68.90;;;;;;4966370;28;83203;-48
2021/09/14 16:12:57;;;;;;;5.75;2.25;;;26.00;68.90;;;;;;4964055;28;82262;-49
2021/09/14 16:15:23;;;;;;;5.03;2.38;;;26.00;68.80;;;;;;4974755;28;81935;-49
2021/09/14 16:17:49;;;;;;;4.68;1.88;;;26.00;68.70;;;;;;4985836;28;81684;-49
2021/09/14 16:20:15;;;;;;;3.35;1.75;;;26.00;68.70;;;;;;4978674;28;82865;-49
2021/09/14 16:22:42;;;;;;;5.15;2.15;;;26.00;68.60;;;;;;4985980;28;83581;-48
2021/09/14 16:25:09;;;;;;;5.10;2.25;;;26.00;68.60;;;;;;4985992;28;81800;-47
2021/09/14 16:27:42;;;;;;;6.07;2.20;;;26.00;68.60;;;;;;4985637;28;82585;-48
2021/09/14 16:30:09;;;;;;;3.78;2.15;;;26.00;68.50;;;;;;4984355;28;83103;-47
2021/09/14 16:32:36;;;;;;;3.80;1.92;;;26.00;68.50;;;;;;4985906;28;81652;-47
2021/09/14 16:35:04;;;;;;;7.45;1.90;;;26.00;68.50;;;;;;4985631;28;83417;-47
2021/09/14 16:37:29;;;;;;;4.43;2.28;;;26.00;68.50;;;;;;4985735;28;81784;-48
2021/09/14 16:39:55;;;;;;;4.57;1.85;;;26.00;68.60;;;;;;4985929;28;81745;-51
2021/09/14 16:42:21;;;;;;;16.48;2.33;;;26.00;68.50;;;;;;4985875;28;81654;-46
2021/09/14 16:44:48;;;;;;;6.10;2.20;;;26.10;68.60;;;;;;4986082;28;81892;-47
2021/09/14 16:47:17;;;;;;;8.20;2.50;;;26.10;68.60;;;;;;4985736;28;81664;-47
2021/09/14 16:49:44;;;;;;;6.70;2.35;;;26.10;68.60;;;;;;4985615;28;82291;-47
2021/09/14 16:52:14;;;;;;;11.07;2.42;;;26.10;68.70;;;;;;4983119;28;84418;-58
2021/09/14 16:54:41;;;;;;;14.60;2.20;;;26.10;68.70;;;;;;4982397;28;84524;-62
2021/09/14 16:57:07;;;;;;;8.82;2.50;;;26.10;68.70;;;;;;4975085;28;82062;-61
2021/09/14 16:59:33;;;;;;;16.85;2.50;;;26.10;68.80;;;;;;4969583;28;82135;-62
2021/09/14 17:01:58;;;;;;;21.60;2.30;;;26.10;69.00;;;;;;4982483;28;84657;-49
2021/09/14 17:04:25;;;;;;;7.10;2.22;;;26.10;69.10;;;;;;4979048;28;81986;-48
2021/09/14 17:06:51;;;;;;;10.05;3.00;;;26.20;69.30;;;;;;4980103;28;82443;-48
2021/09/14 17:09:18;;;;;;;6.60;2.45;;;26.10;69.30;;;;;;4978889;28;81720;-50
2021/09/14 17:11:44;;;;;;;13.05;2.55;;;26.20;69.30;;;;;;4976567;28;85062;-48
2021/09/14 17:14:10;;;;;;;6.55;2.40;;;26.10;69.30;;;;;;4976788;28;81926;-48